Mare Frisium — PCBM — position and weather

sailwx.info

Track history (hours):
 
Tides and Currents Weather Stations Pressure Air Temp Water Temp Dewpoint Dewpoint Depression Visibility Wind Speed Wind Dir Waves Ship Positions

Mare Frisium (Netherlands)

Ship's website: http://www.tallship-company.com/mare-frisium-2/

Last reported at 2019-Aug-24 19:30 UTC. Time now 2019-Aug-24 19:53 UTC.
Position N 53°33' E 009°59'.

Length 50 m; draft 2.8 m.

Type: Sailing vessel. MMSI: 244596000.

Date/timePositionNaut miles runAvg speedWind from/ knotsBaromVisibWave heightAir tempDewpointWater temp
2019-Aug-24 19:30N 53°33' E 009°59'2 3.7
2019-Aug-24 19:00N 53°32' E 009°56'4 8.2
2019-Aug-24 18:30N 53°33' E 009°49'4 8.2
2019-Aug-24 18:00N 53°34' E 009°42'1 2.5
2019-Aug-24 17:30N 53°34' E 009°44'2 3.7
2019-Aug-24 17:00N 53°33' E 009°47'2 3.2
2019-Aug-24 16:30N 53°33' E 009°50'1 2.1
2019-Aug-24 16:00N 53°33' E 009°52'2 3.0
2019-Aug-24 15:30N 53°33' E 009°54'2 4.7
2019-Aug-24 15:00N 53°33' E 009°58'1 1.0
2019-Aug-24 14:28N 53°33' E 009°59'0 0.0
2019-Aug-24 13:58N 53°33' E 009°59'0 0.0
2019-Aug-24 13:28N 53°33' E 009°59'0 0.0
2019-Aug-24 12:58N 53°33' E 009°59'1 1.4
2019-Aug-24 12:30N 53°33' E 009°58'2 4.4
2019-Aug-24 12:01N 53°32' E 009°54'2 4.7
2019-Aug-24 11:31N 53°33' E 009°50'2 4.2
2019-Aug-24 11:01N 53°33' E 009°47'2 3.6
2019-Aug-24 10:31N 53°34' E 009°44'2 3.1
2019-Aug-24 10:00N 53°34' E 009°41'3 7.0
2019-Aug-24 09:31N 53°34' E 009°47'3 6.8
2019-Aug-24 09:00N 53°33' E 009°53'3 5.5
2019-Aug-24 08:31N 53°33' E 009°57'1 1.8
2019-Aug-24 07:58N 53°33' E 009°59'0 0.0
2019-Aug-24 07:28N 53°33' E 009°59'0 0.0
2019-Aug-24 06:58N 53°33' E 009°59'0 0.0
2019-Aug-24 06:31N 53°33' E 009°59'0 0.0
2019-Aug-24 06:00N 53°33' E 009°59'0 0.0
2019-Aug-24 05:30N 53°33' E 009°59'0 0.0
2019-Aug-24 05:00N 53°33' E 009°59'0 0.0
2019-Aug-24 04:30N 53°33' E 009°59'0 0.0
2019-Aug-24 04:00N 53°33' E 009°59'0 0.0
2019-Aug-24 03:30N 53°33' E 009°59'0 0.0
2019-Aug-24 03:00N 53°33' E 009°59'0 0.0
2019-Aug-24 02:30N 53°33' E 009°59'0 0.0
2019-Aug-24 02:01N 53°33' E 009°59'0 0.0
2019-Aug-24 01:30N 53°33' E 009°59'0 0.0
2019-Aug-24 01:00N 53°33' E 009°59'0 0.0
2019-Aug-24 00:30N 53°33' E 009°59'0 0.0
2019-Aug-24 00:00N 53°33' E 009°59'0 0.0
2019-Aug-23 23:30N 53°33' E 009°59'0 0.0
2019-Aug-23 23:01N 53°33' E 009°59'0 0.0
2019-Aug-23 22:31N 53°33' E 009°59'0 0.2
2019-Aug-23 22:00N 53°33' E 009°59'0 0.0
2019-Aug-23 21:30N 53°33' E 009°59'0 0.0
2019-Aug-23 21:01N 53°33' E 009°59'0 0.0
2019-Aug-23 20:30N 53°33' E 009°59'0 0.0
2019-Aug-23 20:00N 53°33' E 009°59'0 0.0
2019-Aug-23 19:31N 53°33' E 009°59'0 0.0
2019-Aug-23 19:00N 53°33' E 009°59'0 0.0
2019-Aug-23 18:31N 53°33' E 009°59'0 0.0
2019-Aug-23 18:01N 53°33' E 009°59'0 0.0
2019-Aug-23 17:31N 53°33' E 009°59'0 0.0
2019-Aug-23 17:01N 53°33' E 009°59'0 0.0
2019-Aug-23 16:31N 53°33' E 009°59'0 0.0
2019-Aug-23 16:01N 53°33' E 009°59'0 0.0
2019-Aug-23 15:31N 53°33' E 009°59'0 0.0
2019-Aug-23 15:01N 53°33' E 009°59'0 0.0
2019-Aug-23 14:31N 53°33' E 009°59'0 0.0
2019-Aug-23 14:00N 53°33' E 009°59'0 0.0
2019-Aug-23 13:30N 53°33' E 009°59'2 4.7
2019-Aug-23 13:00N 53°32' E 009°55'3 5.9
2019-Aug-23 12:30N 53°33' E 009°50'3 5.8
2019-Aug-23 12:00N 53°34' E 009°45'3 5.9
2019-Aug-23 11:30N 53°34' E 009°40'3 5.9
2019-Aug-23 11:00N 53°36' E 009°36'2 4.3
2019-Aug-23 10:30N 53°37' E 009°33'2 4.4
2019-Aug-23 10:00N 53°39' E 009°31'2 4.5
2019-Aug-23 09:30N 53°41' E 009°30'2 4.2
2019-Aug-23 09:00N 53°43' E 009°28'2 4.7
2019-Aug-23 08:30N 53°44' E 009°25'3 5.3
2019-Aug-23 08:00N 53°47' E 009°24'0 0.5
2019-Aug-23 07:29N 53°47' E 009°25'0 0.0
2019-Aug-23 06:59N 53°47' E 009°25'0 0.0
2019-Aug-23 06:29N 53°47' E 009°25'0 0.0
2019-Aug-23 05:59N 53°47' E 009°25'0 0.0
2019-Aug-23 05:29N 53°47' E 009°25'0 0.0
2019-Aug-23 04:59N 53°47' E 009°25'0 0.0
2019-Aug-23 04:29N 53°47' E 009°25'0 0.0
2019-Aug-23 03:59N 53°47' E 009°25'0 0.0
2019-Aug-23 03:29N 53°47' E 009°25'0 0.0
2019-Aug-23 02:59N 53°47' E 009°25'0 0.0
2019-Aug-23 02:29N 53°47' E 009°25'0 0.0
2019-Aug-23 01:59N 53°47' E 009°25'0 0.0
2019-Aug-23 01:29N 53°47' E 009°25'0 0.0
2019-Aug-23 00:59N 53°47' E 009°25'0 0.0
2019-Aug-23 00:29N 53°47' E 009°25'0 0.0
2019-Aug-22 23:59N 53°47' E 009°25'0 0.0
2019-Aug-22 23:23N 53°47' E 009°25'0 0.0
2019-Aug-22 22:59N 53°47' E 009°25'0 0.0
2019-Aug-22 22:23N 53°47' E 009°25'0 0.0
2019-Aug-22 21:59N 53°47' E 009°25'0 0.0
2019-Aug-22 21:29N 53°47' E 009°25'0 0.0
2019-Aug-22 20:59N 53°47' E 009°25'0 0.0
2019-Aug-22 20:29N 53°47' E 009°25'0 0.0
2019-Aug-22 19:59N 53°47' E 009°25'0 0.0
2019-Aug-22 19:29N 53°47' E 009°25'0 0.0
2019-Aug-22 18:59N 53°47' E 009°25'0 0.0
2019-Aug-22 18:29N 53°47' E 009°25'0 0.0
2019-Aug-22 17:59N 53°47' E 009°25'0 0.0
2019-Aug-22 17:29N 53°47' E 009°25'0 0.0
2019-Aug-22 16:59N 53°47' E 009°25'0 0.0
2019-Aug-22 16:29N 53°47' E 009°25'0 0.0
2019-Aug-22 15:59N 53°47' E 009°25'0 0.1
2019-Aug-22 15:30N 53°47' E 009°25'1 2.6
2019-Aug-22 15:00N 53°48' E 009°23'2 4.9
2019-Aug-22 14:30N 53°46' E 009°24'1 3.0
2019-Aug-22 14:00N 53°44' E 009°26'2 3.5
2019-Aug-22 13:30N 53°43' E 009°28'2 4.5
2019-Aug-22 13:00N 53°41' E 009°30'3 5.5
2019-Aug-22 12:30N 53°39' E 009°31'3 6.1
2019-Aug-22 12:00N 53°36' E 009°35'3 6.0
2019-Aug-22 11:30N 53°34' E 009°39'3 6.6
2019-Aug-22 11:00N 53°34' E 009°44'3 6.9
2019-Aug-22 10:30N 53°33' E 009°50'3 6.8
2019-Aug-22 10:00N 53°33' E 009°55'2 3.5
2019-Aug-22 09:29N 53°33' E 009°59'0 0.4
2019-Aug-22 08:59N 53°33' E 009°59'0 0.0
2019-Aug-22 08:29N 53°33' E 009°59'0 0.0
2019-Aug-22 07:59N 53°33' E 009°59'0 0.0
2019-Aug-22 07:29N 53°33' E 009°59'0 0.0
2019-Aug-22 06:59N 53°33' E 009°59'0 0.0
2019-Aug-22 06:29N 53°33' E 009°59'0 0.0
2019-Aug-22 05:59N 53°33' E 009°59'0 0.0
2019-Aug-22 05:29N 53°33' E 009°59'0 0.0
2019-Aug-22 04:59N 53°33' E 009°59'0 0.0
2019-Aug-22 04:29N 53°33' E 009°59'0 0.0
2019-Aug-22 03:59N 53°33' E 009°59'0 0.0
2019-Aug-22 03:29N 53°33' E 009°59'0 0.0
2019-Aug-22 02:59N 53°33' E 009°59'0 0.0
2019-Aug-22 02:29N 53°33' E 009°59'0 0.0
2019-Aug-22 01:59N 53°33' E 009°59'0 0.0
2019-Aug-22 01:29N 53°33' E 009°59'0 0.0
2019-Aug-22 00:59N 53°33' E 009°59'0 0.0
2019-Aug-22 00:29N 53°33' E 009°59'0 0.0
2019-Aug-21 23:59N 53°33' E 009°59'0 0.0
2019-Aug-21 23:29N 53°33' E 009°59'0 0.0
2019-Aug-21 22:59N 53°33' E 009°59'0 0.0
2019-Aug-21 22:29N 53°33' E 009°59'0 0.9
2019-Aug-21 22:01N 53°33' E 009°58'2 3.3
2019-Aug-21 21:31N 53°32' E 009°55'2 3.6
2019-Aug-21 21:01N 53°33' E 009°52'2 4.1
2019-Aug-21 20:31N 53°33' E 009°49'2 4.5
2019-Aug-21 20:01N 53°34' E 009°45'2 4.0
2019-Aug-21 19:31N 53°34' E 009°42'3 6.4
2019-Aug-21 19:00N 53°33' E 009°47'3 6.2
2019-Aug-21 18:31N 53°33' E 009°52'3 6.5
2019-Aug-21 18:01N 53°33' E 009°58'1 1.2
2019-Aug-21 17:30N 53°33' E 009°59'0 0.0
2019-Aug-21 17:01N 53°33' E 009°59'0 0.0
2019-Aug-21 16:31N 53°33' E 009°59'0 0.0
2019-Aug-21 16:01N 53°33' E 009°59'0 0.0
2019-Aug-21 15:31N 53°33' E 009°59'0 0.0
2019-Aug-21 15:01N 53°33' E 009°59'0 0.1
2019-Aug-21 14:30N 53°33' E 009°59'0 0.0
2019-Aug-21 14:00N 53°33' E 009°59'0 0.0
2019-Aug-21 13:30N 53°33' E 009°59'0 0.0
2019-Aug-21 13:00N 53°33' E 009°59'0 0.0
2019-Aug-21 12:30N 53°33' E 009°59'0 0.0
2019-Aug-21 12:00N 53°33' E 009°59'0 0.0
2019-Aug-21 11:30N 53°33' E 009°59'0 0.0
2019-Aug-21 11:00N 53°33' E 009°59'0 0.0
2019-Aug-21 10:30N 53°33' E 009°59'0 0.0
2019-Aug-21 10:00N 53°33' E 009°59'0 0.0
2019-Aug-21 09:30N 53°33' E 009°59'0 0.0
2019-Aug-21 09:00N 53°33' E 009°59'0 0.0
2019-Aug-21 08:30N 53°33' E 009°59'0 0.0
2019-Aug-21 08:00N 53°33' E 009°59'0 0.0
2019-Aug-21 07:30N 53°33' E 009°59'0 0.0
2019-Aug-21 07:00N 53°33' E 009°59'0 0.0
2019-Aug-21 06:30N 53°33' E 009°59'0 0.0
2019-Aug-21 06:00N 53°33' E 009°59'0 0.0
2019-Aug-21 05:30N 53°33' E 009°59'0 0.0
2019-Aug-21 05:00N 53°33' E 009°59'0 0.0
2019-Aug-21 04:30N 53°33' E 009°59'0 0.0
2019-Aug-21 04:00N 53°33' E 009°59'0 0.0
2019-Aug-21 03:30N 53°33' E 009°59'0 0.0
2019-Aug-21 03:00N 53°33' E 009°59'0 0.0
2019-Aug-21 02:30N 53°33' E 009°59'0 0.0
2019-Aug-21 02:00N 53°33' E 009°59'0 0.0
2019-Aug-21 01:30N 53°33' E 009°59'0 0.0
2019-Aug-21 01:00N 53°33' E 009°59'0 0.0
2019-Aug-21 00:30N 53°33' E 009°59'0 0.0
2019-Aug-21 00:00N 53°33' E 009°59'0 0.0
2019-Aug-20 23:30N 53°33' E 009°59'0 0.0
2019-Aug-20 23:00N 53°33' E 009°59'0 0.0
2019-Aug-20 22:30N 53°33' E 009°59'0 0.0
2019-Aug-20 22:00N 53°33' E 009°59'0 0.0
2019-Aug-20 21:30N 53°33' E 009°59'0 0.0
2019-Aug-20 21:00N 53°33' E 009°59'0 0.0
2019-Aug-20 20:30N 53°33' E 009°59'0 0.0
2019-Aug-20 20:00N 53°33' E 009°59'0 0.0
2019-Aug-20 19:30N 53°33' E 009°59'0 0.0
2019-Aug-20 19:00N 53°33' E 009°59'0 0.0
2019-Aug-20 18:30N 53°33' E 009°59'0 0.0
2019-Aug-20 18:00N 53°33' E 009°59'0 0.0
2019-Aug-20 17:30N 53°33' E 009°59'0 0.0
2019-Aug-20 17:00N 53°33' E 009°59'0 0.0
2019-Aug-20 16:30N 53°33' E 009°59'0 0.0
2019-Aug-20 16:00N 53°33' E 009°59'0 0.0
2019-Aug-20 15:30N 53°33' E 009°59'0 0.0
2019-Aug-20 15:00N 53°33' E 009°59'0 0.0
2019-Aug-20 14:30N 53°33' E 009°59'0 0.0
2019-Aug-20 14:00N 53°33' E 009°59'0 0.0
2019-Aug-20 13:30N 53°33' E 009°59'0 0.0
2019-Aug-20 13:00N 53°33' E 009°59'0 0.0
2019-Aug-20 12:30N 53°33' E 009°59'0 0.0
2019-Aug-20 12:00N 53°33' E 009°59'0 0.0
2019-Aug-20 11:30N 53°33' E 009°59'0 0.0
2019-Aug-20 11:00N 53°33' E 009°59'0 0.0
2019-Aug-20 10:30N 53°33' E 009°59'0 0.0
2019-Aug-20 10:00N 53°33' E 009°59'0 0.0
2019-Aug-20 09:30N 53°33' E 009°59'0 0.0
2019-Aug-20 09:00N 53°33' E 009°59'0 0.0
2019-Aug-20 08:30N 53°33' E 009°59'0 0.0
2019-Aug-20 08:00N 53°33' E 009°59'0 0.0
2019-Aug-20 07:30N 53°33' E 009°59'0 0.0
2019-Aug-20 07:00N 53°33' E 009°59'0 0.0
2019-Aug-20 06:30N 53°33' E 009°59'0 0.0
2019-Aug-20 06:00N 53°33' E 009°59'0 0.0
2019-Aug-20 05:30N 53°33' E 009°59'0 0.0
2019-Aug-20 05:00N 53°33' E 009°59'0 0.0
2019-Aug-20 04:30N 53°33' E 009°59'0 0.0
2019-Aug-20 04:00N 53°33' E 009°59'0 0.0
2019-Aug-20 03:30N 53°33' E 009°59'0 0.0
2019-Aug-20 03:00N 53°33' E 009°59'0 0.0
2019-Aug-20 02:30N 53°33' E 009°59'0 0.0
2019-Aug-20 02:00N 53°33' E 009°59'0 0.0
2019-Aug-20 01:30N 53°33' E 009°59'0 0.0
2019-Aug-20 01:00N 53°33' E 009°59'0 0.0
2019-Aug-20 00:30N 53°33' E 009°59'0 0.0
2019-Aug-20 00:00N 53°33' E 009°59'0 0.0
2019-Aug-19 23:30N 53°33' E 009°59'0 0.0
2019-Aug-19 23:00N 53°33' E 009°59'0 0.0
2019-Aug-19 22:30N 53°33' E 009°59'0 0.0
2019-Aug-19 22:00N 53°33' E 009°59'0 0.0
2019-Aug-19 21:31N 53°33' E 009°59'0 0.0
2019-Aug-19 21:00N 53°33' E 009°59'0 0.0
2019-Aug-19 20:30N 53°33' E 009°59'0 0.0
2019-Aug-19 20:00N 53°33' E 009°59'0 0.0
2019-Aug-19 19:30N 53°33' E 009°59'0 0.0
2019-Aug-19 19:00N 53°33' E 009°59'0 0.0
2019-Aug-19 18:30N 53°33' E 009°59'0 0.0
2019-Aug-19 18:00N 53°33' E 009°59'0 0.0
2019-Aug-19 17:30N 53°33' E 009°59'0 0.0
2019-Aug-19 17:00N 53°33' E 009°59'0 0.0
2019-Aug-19 16:30N 53°33' E 009°59'0 0.0
2019-Aug-19 16:00N 53°33' E 009°59'0 0.0
2019-Aug-19 15:30N 53°33' E 009°59'0 0.0
2019-Aug-19 15:00N 53°33' E 009°59'0 0.0
2019-Aug-19 14:30N 53°33' E 009°59'0 0.0
2019-Aug-19 14:00N 53°33' E 009°59'0 0.0
2019-Aug-19 13:30N 53°33' E 009°59'0 0.0
2019-Aug-19 13:00N 53°33' E 009°59'0 0.0
2019-Aug-19 12:30N 53°33' E 009°59'0 0.0
2019-Aug-19 12:00N 53°33' E 009°59'0 0.0
2019-Aug-19 11:30N 53°33' E 009°59'0 0.0
2019-Aug-19 11:00N 53°33' E 009°59'0 0.0
2019-Aug-19 10:30N 53°33' E 009°59'0 0.0
2019-Aug-19 10:00N 53°33' E 009°59'0 0.0
2019-Aug-19 09:30N 53°33' E 009°59'0 0.0
2019-Aug-19 09:00N 53°33' E 009°59'0 0.0
2019-Aug-19 08:30N 53°33' E 009°59'0 0.0
2019-Aug-19 08:00N 53°33' E 009°59'0 0.0
2019-Aug-19 07:30N 53°33' E 009°59'0 0.0
2019-Aug-19 07:00N 53°33' E 009°59'0 0.0
2019-Aug-19 06:30N 53°33' E 009°59'0 0.0
2019-Aug-19 06:00N 53°33' E 009°59'0 0.0
2019-Aug-19 05:30N 53°33' E 009°59'0 0.0
2019-Aug-19 05:00N 53°33' E 009°59'0 0.0
2019-Aug-19 04:30N 53°33' E 009°59'0 0.0
2019-Aug-19 04:00N 53°33' E 009°59'0 0.0
2019-Aug-19 03:30N 53°33' E 009°59'0 0.0
2019-Aug-19 03:00N 53°33' E 009°59'0 0.0
2019-Aug-19 02:30N 53°33' E 009°59'0 0.0
2019-Aug-19 02:00N 53°33' E 009°59'0 0.0
2019-Aug-19 01:30N 53°33' E 009°59'0 0.0
2019-Aug-19 01:00N 53°33' E 009°59'0 0.0
2019-Aug-19 00:30N 53°33' E 009°59'0 0.0
2019-Aug-19 00:00N 53°33' E 009°59'0 0.0
2019-Aug-18 23:30N 53°33' E 009°59'0 0.0
2019-Aug-18 23:00N 53°33' E 009°59'0 0.0
2019-Aug-18 22:30N 53°33' E 009°59'0 0.0
2019-Aug-18 22:00N 53°33' E 009°59'0 0.0
2019-Aug-18 21:30N 53°33' E 009°59'0 0.0
2019-Aug-18 21:00N 53°33' E 009°59'0 0.0
2019-Aug-18 20:30N 53°33' E 009°59'0 0.0
2019-Aug-18 20:00N 53°33' E 009°59'0 0.0
2019-Aug-18 19:30N 53°33' E 009°59'0 0.0
2019-Aug-18 19:00N 53°33' E 009°59'0 0.0
2019-Aug-18 18:30N 53°33' E 009°59'0 0.0
2019-Aug-18 18:00N 53°33' E 009°59'0 0.0
2019-Aug-18 17:30N 53°33' E 009°59'0 0.0
2019-Aug-18 17:00N 53°33' E 009°59'0 0.0
2019-Aug-18 16:30N 53°33' E 009°59'0 0.0
2019-Aug-18 16:00N 53°33' E 009°59'0 0.0
2019-Aug-18 15:30N 53°33' E 009°59'0 0.0
2019-Aug-18 15:00N 53°33' E 009°59'0 0.0
2019-Aug-18 14:30N 53°33' E 009°59'0 0.1
2019-Aug-18 14:00N 53°33' E 009°59'0 0.0
2019-Aug-18 13:30N 53°33' E 009°59'0 0.0
2019-Aug-18 13:00N 53°33' E 009°59'2 3.4
2019-Aug-18 12:30N 53°32' E 009°56'2 4.8
2019-Aug-18 12:00N 53°33' E 009°52'2 4.0
2019-Aug-18 11:30N 53°33' E 009°49'2 4.4
2019-Aug-18 11:00N 53°34' E 009°45'2 3.8
2019-Aug-18 10:30N 53°34' E 009°42'4 7.3
2019-Aug-18 10:00N 53°33' E 009°48'4 8.0
2019-Aug-18 09:30N 53°33' E 009°55'3 4.9
2019-Aug-18 08:59N 53°33' E 009°59'0 0.0
2019-Aug-18 08:29N 53°33' E 009°59'0 0.0
2019-Aug-18 07:59N 53°33' E 009°59'0 0.0
2019-Aug-18 06:59N 53°33' E 009°59'0 0.1
2019-Aug-18 06:28N 53°33' E 009°59'0 0.0
2019-Aug-18 05:58N 53°33' E 009°59'0 0.0
2019-Aug-18 05:28N 53°33' E 009°59'0 0.0
2019-Aug-18 04:58N 53°33' E 009°59'0 0.0
2019-Aug-18 04:28N 53°33' E 009°59'0 0.0
2019-Aug-18 03:58N 53°33' E 009°59'0 0.0
2019-Aug-18 03:28N 53°33' E 009°59'0 0.0
2019-Aug-18 02:58N 53°33' E 009°59'0 0.0
2019-Aug-18 02:28N 53°33' E 009°59'0 0.0
2019-Aug-18 01:58N 53°33' E 009°59'0 0.0
2019-Aug-18 01:28N 53°33' E 009°59'0 0.0
2019-Aug-18 00:58N 53°33' E 009°59'0 0.0
2019-Aug-18 00:28N 53°33' E 009°59'0 0.0
2019-Aug-17 23:58N 53°33' E 009°59'0 0.0
2019-Aug-17 23:28N 53°33' E 009°59'0 0.0
2019-Aug-17 22:58N 53°33' E 009°59'0 0.0
2019-Aug-17 22:28N 53°33' E 009°59'0 0.0
2019-Aug-17 21:58N 53°33' E 009°59'0 0.0
2019-Aug-17 21:28N 53°33' E 009°59'0 0.0
2019-Aug-17 20:58N 53°33' E 009°59'0 0.0
2019-Aug-17 20:28N 53°33' E 009°59'0 0.0
2019-Aug-17 19:58N 53°33' E 009°59'0 0.2
2019-Aug-17 19:29N 53°33' E 009°59'0 0.0
2019-Aug-17 18:59N 53°33' E 009°59'0 0.0
2019-Aug-17 18:30N 53°33' E 009°59'4 4.1
2019-Aug-17 17:30N 53°33' E 009°52'2 3.1
2019-Aug-17 17:01N 53°33' E 009°49'3 5.3
2019-Aug-17 16:30N 53°34' E 009°45'2 4.2
2019-Aug-17 16:00N 53°33' E 009°49'2 4.6
2019-Aug-17 15:30N 53°33' E 009°52'2 4.9
2019-Aug-17 15:01N 53°33' E 009°56'1 2.9
2019-Aug-17 14:30N 53°33' E 009°59'0 0.0
2019-Aug-17 14:00N 53°33' E 009°59'0 0.0
2019-Aug-17 13:30N 53°33' E 009°59'0 0.0
2019-Aug-17 13:01N 53°33' E 009°59'3 5.1
2019-Aug-17 12:30N 53°32' E 009°55'3 5.5
2019-Aug-17 12:00N 53°33' E 009°50'2 5.0
2019-Aug-17 11:31N 53°34' E 009°46'2 3.8
2019-Aug-17 11:01N 53°34' E 009°43'1 2.3
2019-Aug-17 10:30N 53°34' E 009°45'3 5.8
2019-Aug-17 10:01N 53°33' E 009°49'3 6.2
2019-Aug-17 09:30N 53°33' E 009°55'3 4.7
2019-Aug-17 08:58N 53°33' E 009°59'0 0.0
2019-Aug-17 08:28N 53°33' E 009°59'0 0.0
2019-Aug-17 07:58N 53°33' E 009°59'0 0.0
2019-Aug-17 07:28N 53°33' E 009°59'0 0.0
2019-Aug-17 06:58N 53°33' E 009°59'0 0.0
2019-Aug-17 06:28N 53°33' E 009°59'0 0.0
2019-Aug-17 05:58N 53°33' E 009°59'0 0.0
2019-Aug-17 05:28N 53°33' E 009°59'0 0.0
2019-Aug-17 04:58N 53°33' E 009°59'0 0.0
2019-Aug-17 04:28N 53°33' E 009°59'0 0.0
2019-Aug-17 03:58N 53°33' E 009°59'0 0.0
2019-Aug-17 03:28N 53°33' E 009°59'0 0.0
2019-Aug-17 02:58N 53°33' E 009°59'0 0.0
2019-Aug-17 02:28N 53°33' E 009°59'0 0.0
2019-Aug-17 01:58N 53°33' E 009°59'0 0.0
2019-Aug-17 01:28N 53°33' E 009°59'0 0.0
2019-Aug-17 00:58N 53°33' E 009°59'0 0.0
2019-Aug-17 00:28N 53°33' E 009°59'0 0.0
2019-Aug-16 23:58N 53°33' E 009°59'0 0.0
2019-Aug-16 23:28N 53°33' E 009°59'0 0.0
2019-Aug-16 22:58N 53°33' E 009°59'0 0.0
2019-Aug-16 22:28N 53°33' E 009°59'0 0.0
2019-Aug-16 21:58N 53°33' E 009°59'0 0.0
2019-Aug-16 21:28N 53°33' E 009°59'0 0.0
2019-Aug-16 20:58N 53°33' E 009°59'0 0.0
2019-Aug-16 20:28N 53°33' E 009°59'0 0.0
2019-Aug-16 19:58N 53°33' E 009°59'1 3.0
2019-Aug-16 19:31N 53°32' E 009°57'3 5.5
2019-Aug-16 19:01N 53°33' E 009°52'3 5.0
2019-Aug-16 18:30N 53°33' E 009°48'2 5.0
2019-Aug-16 18:00N 53°34' E 009°44'3 5.7
2019-Aug-16 17:30N 53°34' E 009°39'3 5.6
2019-Aug-16 17:00N 53°36' E 009°35'3 5.3
2019-Aug-16 16:31N 53°38' E 009°32'0 0.5
2019-Aug-16 16:01N 53°38' E 009°32'2 4.1
2019-Aug-16 15:30N 53°37' E 009°34'3 6.5
2019-Aug-16 15:00N 53°35' E 009°39'3 6.6
2019-Aug-16 14:30N 53°34' E 009°44'3 5.9
2019-Aug-16 14:01N 53°33' E 009°49'3 6.1
2019-Aug-16 13:31N 53°33' E 009°54'3 6.1
2019-Aug-16 13:00N 53°33' E 009°59'1 1.6
2019-Aug-16 12:30N 53°33' E 009°58'3 6.9
2019-Aug-16 12:00N 53°33' E 009°52'4 7.1
2019-Aug-16 11:30N 53°34' E 009°46'3 6.2
2019-Aug-16 11:01N 53°34' E 009°41'3 5.6
2019-Aug-16 10:30N 53°35' E 009°37'2 4.7
2019-Aug-16 10:00N 53°34' E 009°40'3 6.9
2019-Aug-16 09:31N 53°34' E 009°46'3 6.5
2019-Aug-16 09:01N 53°33' E 009°51'3 5.8
2019-Aug-16 08:31N 53°33' E 009°56'2 3.2
2019-Aug-16 07:58N 53°33' E 009°59'0 0.0
2019-Aug-16 07:28N 53°33' E 009°59'0 0.0
2019-Aug-16 06:58N 53°33' E 009°59'0 0.0
2019-Aug-16 06:29N 53°33' E 009°59'0 0.0
2019-Aug-16 05:58N 53°33' E 009°59'0 0.0
2019-Aug-16 05:28N 53°33' E 009°59'0 0.0
2019-Aug-16 04:59N 53°33' E 009°59'0 0.0
2019-Aug-16 04:28N 53°33' E 009°59'0 0.0
2019-Aug-16 03:58N 53°33' E 009°59'0 0.0
2019-Aug-16 03:28N 53°33' E 009°59'0 0.0
2019-Aug-16 02:59N 53°33' E 009°59'0 0.0
2019-Aug-16 02:29N 53°33' E 009°59'0 0.0
2019-Aug-16 01:58N 53°33' E 009°59'0 0.0
2019-Aug-16 01:29N 53°33' E 009°59'0 0.0
2019-Aug-16 00:59N 53°33' E 009°59'0 0.0
2019-Aug-16 00:28N 53°33' E 009°59'0 0.0
2019-Aug-15 23:58N 53°33' E 009°59'0 0.0
2019-Aug-15 23:28N 53°33' E 009°59'0 0.0
2019-Aug-15 22:58N 53°33' E 009°59'0 0.0
2019-Aug-15 22:29N 53°33' E 009°59'0 0.0
2019-Aug-15 21:58N 53°33' E 009°59'0 0.0
2019-Aug-15 21:28N 53°33' E 009°59'0 0.0
2019-Aug-15 20:58N 53°33' E 009°59'1 1.5
2019-Aug-15 20:30N 53°33' E 009°58'2 5.0
2019-Aug-15 20:00N 53°32' E 009°54'2 4.7
2019-Aug-15 19:30N 53°33' E 009°50'2 4.4
2019-Aug-15 19:00N 53°34' E 009°46'2 4.3
2019-Aug-15 18:30N 53°34' E 009°43'2 4.9
2019-Aug-15 18:00N 53°34' E 009°47'4 8.0
2019-Aug-15 17:30N 53°33' E 009°53'3 6.7
2019-Aug-15 17:00N 53°33' E 009°59'0 0.0
2019-Aug-15 16:30N 53°33' E 009°59'0 0.0
2019-Aug-15 16:00N 53°33' E 009°59'0 0.0
2019-Aug-15 15:30N 53°33' E 009°59'0 0.0
2019-Aug-15 15:00N 53°33' E 009°59'0 0.0
2019-Aug-15 14:30N 53°33' E 009°59'1 1.4
2019-Aug-15 14:00N 53°32' E 009°60'2 3.8
2019-Aug-15 13:30N 53°33' E 009°57'4 7.7
2019-Aug-15 13:00N 53°33' E 009°50'4 7.9
2019-Aug-15 12:30N 53°34' E 009°44'0 0.2
2019-Aug-15 12:00N 53°34' E 009°44'2 3.0
2019-Aug-15 11:30N 53°34' E 009°46'1 2.7
2019-Aug-15 11:00N 53°33' E 009°49'2 4.2
2019-Aug-15 10:30N 53°33' E 009°52'3 6.3
2019-Aug-15 10:00N 53°33' E 009°57'1 2.0
2019-Aug-15 09:30N 53°33' E 009°59'0 0.0
2019-Aug-15 09:00N 53°33' E 009°59'0 0.0
2019-Aug-15 08:30N 53°33' E 009°59'0 0.0
2019-Aug-15 08:00N 53°33' E 009°59'0 0.0
2019-Aug-15 07:30N 53°33' E 009°59'0 0.2
2019-Aug-15 07:00N 53°33' E 009°59'0 0.0
2019-Aug-15 06:30N 53°33' E 009°59'0 0.0
2019-Aug-15 06:00N 53°33' E 009°59'0 0.0
2019-Aug-15 05:30N 53°33' E 009°59'0 0.0
2019-Aug-15 05:00N 53°33' E 009°59'0 0.0
2019-Aug-15 04:30N 53°33' E 009°59'0 0.0
2019-Aug-15 04:00N 53°33' E 009°59'0 0.0
2019-Aug-15 03:30N 53°33' E 009°59'0 0.0
2019-Aug-15 03:00N 53°33' E 009°59'0 0.0
2019-Aug-15 02:30N 53°33' E 009°59'0 0.0
2019-Aug-15 02:00N 53°33' E 009°59'0 0.0
2019-Aug-15 01:30N 53°33' E 009°59'0 0.0
2019-Aug-15 01:00N 53°33' E 009°59'0 0.0
2019-Aug-15 00:30N 53°33' E 009°59'0 0.0
2019-Aug-15 00:00N 53°33' E 009°59'0 0.0
2019-Aug-14 23:30N 53°33' E 009°59'0 0.0
2019-Aug-14 23:00N 53°33' E 009°59'0 0.0
2019-Aug-14 22:30N 53°33' E 009°59'0 0.0
2019-Aug-14 22:00N 53°33' E 009°59'0 0.0
2019-Aug-14 21:30N 53°33' E 009°59'0 0.0
2019-Aug-14 21:00N 53°33' E 009°59'0 0.0
2019-Aug-14 20:30N 53°33' E 009°59'0 0.0
2019-Aug-14 20:00N 53°33' E 009°59'0 0.0
2019-Aug-14 19:30N 53°33' E 009°59'  
Track history (hours):
 
Tides and Currents Weather Stations Pressure Air Temp Water Temp Dewpoint Dewpoint Depression Visibility Wind Speed Wind Dir Waves Ship Positions

Mare Frisium (Netherlands)

Ship's website: http://www.tallship-company.com/mare-frisium-2/

Last reported at 2019-Aug-24 19:30 UTC. Time now 2019-Aug-24 19:53 UTC.
Position N 53°33' E 009°59'.

Length 50 m; draft 2.8 m.

Type: Sailing vessel. MMSI: 244596000.

Date/timePositionNaut miles runAvg speedWind from/ knotsBaromVisibWave heightAir tempDewpointWater temp
2019-Aug-24 19:30N 53°33' E 009°59'2 3.7
2019-Aug-24 19:00N 53°32' E 009°56'4 8.2
2019-Aug-24 18:30N 53°33' E 009°49'4 8.2
2019-Aug-24 18:00N 53°34' E 009°42'1 2.5
2019-Aug-24 17:30N 53°34' E 009°44'2 3.7
2019-Aug-24 17:00N 53°33' E 009°47'2 3.2
2019-Aug-24 16:30N 53°33' E 009°50'1 2.1
2019-Aug-24 16:00N 53°33' E 009°52'2 3.0
2019-Aug-24 15:30N 53°33' E 009°54'2 4.7
2019-Aug-24 15:00N 53°33' E 009°58'1 1.0
2019-Aug-24 14:28N 53°33' E 009°59'0 0.0
2019-Aug-24 13:58N 53°33' E 009°59'0 0.0
2019-Aug-24 13:28N 53°33' E 009°59'0 0.0
2019-Aug-24 12:58N 53°33' E 009°59'1 1.4
2019-Aug-24 12:30N 53°33' E 009°58'2 4.4
2019-Aug-24 12:01N 53°32' E 009°54'2 4.7
2019-Aug-24 11:31N 53°33' E 009°50'2 4.2
2019-Aug-24 11:01N 53°33' E 009°47'2 3.6
2019-Aug-24 10:31N 53°34' E 009°44'2 3.1
2019-Aug-24 10:00N 53°34' E 009°41'3 7.0
2019-Aug-24 09:31N 53°34' E 009°47'3 6.8
2019-Aug-24 09:00N 53°33' E 009°53'3 5.5
2019-Aug-24 08:31N 53°33' E 009°57'1 1.8
2019-Aug-24 07:58N 53°33' E 009°59'0 0.0
2019-Aug-24 07:28N 53°33' E 009°59'0 0.0
2019-Aug-24 06:58N 53°33' E 009°59'0 0.0
2019-Aug-24 06:31N 53°33' E 009°59'0 0.0
2019-Aug-24 06:00N 53°33' E 009°59'0 0.0
2019-Aug-24 05:30N 53°33' E 009°59'0 0.0
2019-Aug-24 05:00N 53°33' E 009°59'0 0.0
2019-Aug-24 04:30N 53°33' E 009°59'0 0.0
2019-Aug-24 04:00N 53°33' E 009°59'0 0.0
2019-Aug-24 03:30N 53°33' E 009°59'0 0.0
2019-Aug-24 03:00N 53°33' E 009°59'0 0.0
2019-Aug-24 02:30N 53°33' E 009°59'0 0.0
2019-Aug-24 02:01N 53°33' E 009°59'0 0.0
2019-Aug-24 01:30N 53°33' E 009°59'0 0.0
2019-Aug-24 01:00N 53°33' E 009°59'0 0.0
2019-Aug-24 00:30N 53°33' E 009°59'0 0.0
2019-Aug-24 00:00N 53°33' E 009°59'0 0.0
2019-Aug-23 23:30N 53°33' E 009°59'0 0.0
2019-Aug-23 23:01N 53°33' E 009°59'0 0.0
2019-Aug-23 22:31N 53°33' E 009°59'0 0.2
2019-Aug-23 22:00N 53°33' E 009°59'0 0.0
2019-Aug-23 21:30N 53°33' E 009°59'0 0.0
2019-Aug-23 21:01N 53°33' E 009°59'0 0.0
2019-Aug-23 20:30N 53°33' E 009°59'0 0.0
2019-Aug-23 20:00N 53°33' E 009°59'0 0.0
2019-Aug-23 19:31N 53°33' E 009°59'0 0.0
2019-Aug-23 19:00N 53°33' E 009°59'0 0.0
2019-Aug-23 18:31N 53°33' E 009°59'0 0.0
2019-Aug-23 18:01N 53°33' E 009°59'0 0.0
2019-Aug-23 17:31N 53°33' E 009°59'0 0.0
2019-Aug-23 17:01N 53°33' E 009°59'0 0.0
2019-Aug-23 16:31N 53°33' E 009°59'0 0.0
2019-Aug-23 16:01N 53°33' E 009°59'0 0.0
2019-Aug-23 15:31N 53°33' E 009°59'0 0.0
2019-Aug-23 15:01N 53°33' E 009°59'0 0.0
2019-Aug-23 14:31N 53°33' E 009°59'0 0.0
2019-Aug-23 14:00N 53°33' E 009°59'0 0.0
2019-Aug-23 13:30N 53°33' E 009°59'2 4.7
2019-Aug-23 13:00N 53°32' E 009°55'3 5.9
2019-Aug-23 12:30N 53°33' E 009°50'3 5.8
2019-Aug-23 12:00N 53°34' E 009°45'3 5.9
2019-Aug-23 11:30N 53°34' E 009°40'3 5.9
2019-Aug-23 11:00N 53°36' E 009°36'2 4.3
2019-Aug-23 10:30N 53°37' E 009°33'2 4.4
2019-Aug-23 10:00N 53°39' E 009°31'2 4.5
2019-Aug-23 09:30N 53°41' E 009°30'2 4.2
2019-Aug-23 09:00N 53°43' E 009°28'2 4.7
2019-Aug-23 08:30N 53°44' E 009°25'3 5.3
2019-Aug-23 08:00N 53°47' E 009°24'0 0.5
2019-Aug-23 07:29N 53°47' E 009°25'0 0.0
2019-Aug-23 06:59N 53°47' E 009°25'0 0.0
2019-Aug-23 06:29N 53°47' E 009°25'0 0.0
2019-Aug-23 05:59N 53°47' E 009°25'0 0.0
2019-Aug-23 05:29N 53°47' E 009°25'0 0.0
2019-Aug-23 04:59N 53°47' E 009°25'0 0.0
2019-Aug-23 04:29N 53°47' E 009°25'0 0.0
2019-Aug-23 03:59N 53°47' E 009°25'0 0.0
2019-Aug-23 03:29N 53°47' E 009°25'0 0.0
2019-Aug-23 02:59N 53°47' E 009°25'0 0.0
2019-Aug-23 02:29N 53°47' E 009°25'0 0.0
2019-Aug-23 01:59N 53°47' E 009°25'0 0.0
2019-Aug-23 01:29N 53°47' E 009°25'0 0.0
2019-Aug-23 00:59N 53°47' E 009°25'0 0.0
2019-Aug-23 00:29N 53°47' E 009°25'0 0.0
2019-Aug-22 23:59N 53°47' E 009°25'0 0.0
2019-Aug-22 23:23N 53°47' E 009°25'0 0.0
2019-Aug-22 22:59N 53°47' E 009°25'0 0.0
2019-Aug-22 22:23N 53°47' E 009°25'0 0.0
2019-Aug-22 21:59N 53°47' E 009°25'0 0.0
2019-Aug-22 21:29N 53°47' E 009°25'0 0.0
2019-Aug-22 20:59N 53°47' E 009°25'0 0.0
2019-Aug-22 20:29N 53°47' E 009°25'0 0.0
2019-Aug-22 19:59N 53°47' E 009°25'0 0.0
2019-Aug-22 19:29N 53°47' E 009°25'0 0.0
2019-Aug-22 18:59N 53°47' E 009°25'0 0.0
2019-Aug-22 18:29N 53°47' E 009°25'0 0.0
2019-Aug-22 17:59N 53°47' E 009°25'0 0.0
2019-Aug-22 17:29N 53°47' E 009°25'0 0.0
2019-Aug-22 16:59N 53°47' E 009°25'0 0.0
2019-Aug-22 16:29N 53°47' E 009°25'0 0.0
2019-Aug-22 15:59N 53°47' E 009°25'0 0.1
2019-Aug-22 15:30N 53°47' E 009°25'1 2.6
2019-Aug-22 15:00N 53°48' E 009°23'2 4.9
2019-Aug-22 14:30N 53°46' E 009°24'1 3.0
2019-Aug-22 14:00N 53°44' E 009°26'2 3.5
2019-Aug-22 13:30N 53°43' E 009°28'2 4.5
2019-Aug-22 13:00N 53°41' E 009°30'3 5.5
2019-Aug-22 12:30N 53°39' E 009°31'3 6.1
2019-Aug-22 12:00N 53°36' E 009°35'3 6.0
2019-Aug-22 11:30N 53°34' E 009°39'3 6.6
2019-Aug-22 11:00N 53°34' E 009°44'3 6.9
2019-Aug-22 10:30N 53°33' E 009°50'3 6.8
2019-Aug-22 10:00N 53°33' E 009°55'2 3.5
2019-Aug-22 09:29N 53°33' E 009°59'0 0.4
2019-Aug-22 08:59N 53°33' E 009°59'0 0.0
2019-Aug-22 08:29N 53°33' E 009°59'0 0.0
2019-Aug-22 07:59N 53°33' E 009°59'0 0.0
2019-Aug-22 07:29N 53°33' E 009°59'0 0.0
2019-Aug-22 06:59N 53°33' E 009°59'0 0.0
2019-Aug-22 06:29N 53°33' E 009°59'0 0.0
2019-Aug-22 05:59N 53°33' E 009°59'0 0.0
2019-Aug-22 05:29N 53°33' E 009°59'0 0.0
2019-Aug-22 04:59N 53°33' E 009°59'0 0.0
2019-Aug-22 04:29N 53°33' E 009°59'0 0.0
2019-Aug-22 03:59N 53°33' E 009°59'0 0.0
2019-Aug-22 03:29N 53°33' E 009°59'0 0.0
2019-Aug-22 02:59N 53°33' E 009°59'0 0.0
2019-Aug-22 02:29N 53°33' E 009°59'0 0.0
2019-Aug-22 01:59N 53°33' E 009°59'0 0.0
2019-Aug-22 01:29N 53°33' E 009°59'0 0.0
2019-Aug-22 00:59N 53°33' E 009°59'0 0.0
2019-Aug-22 00:29N 53°33' E 009°59'0 0.0
2019-Aug-21 23:59N 53°33' E 009°59'0 0.0
2019-Aug-21 23:29N 53°33' E 009°59'0 0.0
2019-Aug-21 22:59N 53°33' E 009°59'0 0.0
2019-Aug-21 22:29N 53°33' E 009°59'0 0.9
2019-Aug-21 22:01N 53°33' E 009°58'2 3.3
2019-Aug-21 21:31N 53°32' E 009°55'2 3.6
2019-Aug-21 21:01N 53°33' E 009°52'2 4.1
2019-Aug-21 20:31N 53°33' E 009°49'2 4.5
2019-Aug-21 20:01N 53°34' E 009°45'2 4.0
2019-Aug-21 19:31N 53°34' E 009°42'3 6.4
2019-Aug-21 19:00N 53°33' E 009°47'3 6.2
2019-Aug-21 18:31N 53°33' E 009°52'3 6.5
2019-Aug-21 18:01N 53°33' E 009°58'1 1.2
2019-Aug-21 17:30N 53°33' E 009°59'0 0.0
2019-Aug-21 17:01N 53°33' E 009°59'0 0.0
2019-Aug-21 16:31N 53°33' E 009°59'0 0.0
2019-Aug-21 16:01N 53°33' E 009°59'0 0.0
2019-Aug-21 15:31N 53°33' E 009°59'0 0.0
2019-Aug-21 15:01N 53°33' E 009°59'0 0.1
2019-Aug-21 14:30N 53°33' E 009°59'0 0.0
2019-Aug-21 14:00N 53°33' E 009°59'0 0.0
2019-Aug-21 13:30N 53°33' E 009°59'0 0.0
2019-Aug-21 13:00N 53°33' E 009°59'0 0.0
2019-Aug-21 12:30N 53°33' E 009°59'0 0.0
2019-Aug-21 12:00N 53°33' E 009°59'0 0.0
2019-Aug-21 11:30N 53°33' E 009°59'0 0.0
2019-Aug-21 11:00N 53°33' E 009°59'0 0.0
2019-Aug-21 10:30N 53°33' E 009°59'0 0.0
2019-Aug-21 10:00N 53°33' E 009°59'0 0.0
2019-Aug-21 09:30N 53°33' E 009°59'0 0.0
2019-Aug-21 09:00N 53°33' E 009°59'0 0.0
2019-Aug-21 08:30N 53°33' E 009°59'0 0.0
2019-Aug-21 08:00N 53°33' E 009°59'0 0.0
2019-Aug-21 07:30N 53°33' E 009°59'0 0.0
2019-Aug-21 07:00N 53°33' E 009°59'0 0.0
2019-Aug-21 06:30N 53°33' E 009°59'0 0.0
2019-Aug-21 06:00N 53°33' E 009°59'0 0.0
2019-Aug-21 05:30N 53°33' E 009°59'0 0.0
2019-Aug-21 05:00N 53°33' E 009°59'0 0.0
2019-Aug-21 04:30N 53°33' E 009°59'0 0.0
2019-Aug-21 04:00N 53°33' E 009°59'0 0.0
2019-Aug-21 03:30N 53°33' E 009°59'0 0.0
2019-Aug-21 03:00N 53°33' E 009°59'0 0.0
2019-Aug-21 02:30N 53°33' E 009°59'0 0.0
2019-Aug-21 02:00N 53°33' E 009°59'0 0.0
2019-Aug-21 01:30N 53°33' E 009°59'0 0.0
2019-Aug-21 01:00N 53°33' E 009°59'0 0.0
2019-Aug-21 00:30N 53°33' E 009°59'0 0.0
2019-Aug-21 00:00N 53°33' E 009°59'0 0.0
2019-Aug-20 23:30N 53°33' E 009°59'0 0.0
2019-Aug-20 23:00N 53°33' E 009°59'0 0.0
2019-Aug-20 22:30N 53°33' E 009°59'0 0.0
2019-Aug-20 22:00N 53°33' E 009°59'0 0.0
2019-Aug-20 21:30N 53°33' E 009°59'0 0.0
2019-Aug-20 21:00N 53°33' E 009°59'0 0.0
2019-Aug-20 20:30N 53°33' E 009°59'0 0.0
2019-Aug-20 20:00N 53°33' E 009°59'0 0.0
2019-Aug-20 19:30N 53°33' E 009°59'0 0.0
2019-Aug-20 19:00N 53°33' E 009°59'0 0.0
2019-Aug-20 18:30N 53°33' E 009°59'0 0.0
2019-Aug-20 18:00N 53°33' E 009°59'0 0.0
2019-Aug-20 17:30N 53°33' E 009°59'0 0.0
2019-Aug-20 17:00N 53°33' E 009°59'0 0.0
2019-Aug-20 16:30N 53°33' E 009°59'0 0.0
2019-Aug-20 16:00N 53°33' E 009°59'0 0.0
2019-Aug-20 15:30N 53°33' E 009°59'0 0.0
2019-Aug-20 15:00N 53°33' E 009°59'0 0.0
2019-Aug-20 14:30N 53°33' E 009°59'0 0.0
2019-Aug-20 14:00N 53°33' E 009°59'0 0.0
2019-Aug-20 13:30N 53°33' E 009°59'0 0.0
2019-Aug-20 13:00N 53°33' E 009°59'0 0.0
2019-Aug-20 12:30N 53°33' E 009°59'0 0.0
2019-Aug-20 12:00N 53°33' E 009°59'0 0.0
2019-Aug-20 11:30N 53°33' E 009°59'0 0.0
2019-Aug-20 11:00N 53°33' E 009°59'0 0.0
2019-Aug-20 10:30N 53°33' E 009°59'0 0.0
2019-Aug-20 10:00N 53°33' E 009°59'0 0.0
2019-Aug-20 09:30N 53°33' E 009°59'0 0.0
2019-Aug-20 09:00N 53°33' E 009°59'0 0.0
2019-Aug-20 08:30N 53°33' E 009°59'0 0.0
2019-Aug-20 08:00N 53°33' E 009°59'0 0.0
2019-Aug-20 07:30N 53°33' E 009°59'0 0.0
2019-Aug-20 07:00N 53°33' E 009°59'0 0.0
2019-Aug-20 06:30N 53°33' E 009°59'0 0.0
2019-Aug-20 06:00N 53°33' E 009°59'0 0.0
2019-Aug-20 05:30N 53°33' E 009°59'0 0.0
2019-Aug-20 05:00N 53°33' E 009°59'0 0.0
2019-Aug-20 04:30N 53°33' E 009°59'0 0.0
2019-Aug-20 04:00N 53°33' E 009°59'0 0.0
2019-Aug-20 03:30N 53°33' E 009°59'0 0.0
2019-Aug-20 03:00N 53°33' E 009°59'0 0.0
2019-Aug-20 02:30N 53°33' E 009°59'0 0.0
2019-Aug-20 02:00N 53°33' E 009°59'0 0.0
2019-Aug-20 01:30N 53°33' E 009°59'0 0.0
2019-Aug-20 01:00N 53°33' E 009°59'0 0.0
2019-Aug-20 00:30N 53°33' E 009°59'0 0.0
2019-Aug-20 00:00N 53°33' E 009°59'0 0.0
2019-Aug-19 23:30N 53°33' E 009°59'0 0.0
2019-Aug-19 23:00N 53°33' E 009°59'0 0.0
2019-Aug-19 22:30N 53°33' E 009°59'0 0.0
2019-Aug-19 22:00N 53°33' E 009°59'0 0.0
2019-Aug-19 21:31N 53°33' E 009°59'0 0.0
2019-Aug-19 21:00N 53°33' E 009°59'0 0.0
2019-Aug-19 20:30N 53°33' E 009°59'0 0.0
2019-Aug-19 20:00N 53°33' E 009°59'0 0.0
2019-Aug-19 19:30N 53°33' E 009°59'0 0.0
2019-Aug-19 19:00N 53°33' E 009°59'0 0.0
2019-Aug-19 18:30N 53°33' E 009°59'0 0.0
2019-Aug-19 18:00N 53°33' E 009°59'0 0.0
2019-Aug-19 17:30N 53°33' E 009°59'0 0.0
2019-Aug-19 17:00N 53°33' E 009°59'0 0.0
2019-Aug-19 16:30N 53°33' E 009°59'0 0.0
2019-Aug-19 16:00N 53°33' E 009°59'0 0.0
2019-Aug-19 15:30N 53°33' E 009°59'0 0.0
2019-Aug-19 15:00N 53°33' E 009°59'0 0.0
2019-Aug-19 14:30N 53°33' E 009°59'0 0.0
2019-Aug-19 14:00N 53°33' E 009°59'0 0.0
2019-Aug-19 13:30N 53°33' E 009°59'0 0.0
2019-Aug-19 13:00N 53°33' E 009°59'0 0.0
2019-Aug-19 12:30N 53°33' E 009°59'0 0.0
2019-Aug-19 12:00N 53°33' E 009°59'0 0.0
2019-Aug-19 11:30N 53°33' E 009°59'0 0.0
2019-Aug-19 11:00N 53°33' E 009°59'0 0.0
2019-Aug-19 10:30N 53°33' E 009°59'0 0.0
2019-Aug-19 10:00N 53°33' E 009°59'0 0.0
2019-Aug-19 09:30N 53°33' E 009°59'0 0.0
2019-Aug-19 09:00N 53°33' E 009°59'0 0.0
2019-Aug-19 08:30N 53°33' E 009°59'0 0.0
2019-Aug-19 08:00N 53°33' E 009°59'0 0.0
2019-Aug-19 07:30N 53°33' E 009°59'0 0.0
2019-Aug-19 07:00N 53°33' E 009°59'0 0.0
2019-Aug-19 06:30N 53°33' E 009°59'0 0.0
2019-Aug-19 06:00N 53°33' E 009°59'0 0.0
2019-Aug-19 05:30N 53°33' E 009°59'0 0.0
2019-Aug-19 05:00N 53°33' E 009°59'0 0.0
2019-Aug-19 04:30N 53°33' E 009°59'0 0.0
2019-Aug-19 04:00N 53°33' E 009°59'0 0.0
2019-Aug-19 03:30N 53°33' E 009°59'0 0.0
2019-Aug-19 03:00N 53°33' E 009°59'0 0.0
2019-Aug-19 02:30N 53°33' E 009°59'0 0.0
2019-Aug-19 02:00N 53°33' E 009°59'0 0.0
2019-Aug-19 01:30N 53°33' E 009°59'0 0.0
2019-Aug-19 01:00N 53°33' E 009°59'0 0.0
2019-Aug-19 00:30N 53°33' E 009°59'0 0.0
2019-Aug-19 00:00N 53°33' E 009°59'0 0.0
2019-Aug-18 23:30N 53°33' E 009°59'0 0.0
2019-Aug-18 23:00N 53°33' E 009°59'0 0.0
2019-Aug-18 22:30N 53°33' E 009°59'0 0.0
2019-Aug-18 22:00N 53°33' E 009°59'0 0.0
2019-Aug-18 21:30N 53°33' E 009°59'0 0.0
2019-Aug-18 21:00N 53°33' E 009°59'0 0.0
2019-Aug-18 20:30N 53°33' E 009°59'0 0.0
2019-Aug-18 20:00N 53°33' E 009°59'0 0.0
2019-Aug-18 19:30N 53°33' E 009°59'0 0.0
2019-Aug-18 19:00N 53°33' E 009°59'0 0.0
2019-Aug-18 18:30N 53°33' E 009°59'0 0.0
2019-Aug-18 18:00N 53°33' E 009°59'0 0.0
2019-Aug-18 17:30N 53°33' E 009°59'0 0.0
2019-Aug-18 17:00N 53°33' E 009°59'0 0.0
2019-Aug-18 16:30N 53°33' E 009°59'0 0.0
2019-Aug-18 16:00N 53°33' E 009°59'0 0.0
2019-Aug-18 15:30N 53°33' E 009°59'0 0.0
2019-Aug-18 15:00N 53°33' E 009°59'0 0.0
2019-Aug-18 14:30N 53°33' E 009°59'0 0.1
2019-Aug-18 14:00N 53°33' E 009°59'0 0.0
2019-Aug-18 13:30N 53°33' E 009°59'0 0.0
2019-Aug-18 13:00N 53°33' E 009°59'2 3.4
2019-Aug-18 12:30N 53°32' E 009°56'2 4.8
2019-Aug-18 12:00N 53°33' E 009°52'2 4.0
2019-Aug-18 11:30N 53°33' E 009°49'2 4.4
2019-Aug-18 11:00N 53°34' E 009°45'2 3.8
2019-Aug-18 10:30N 53°34' E 009°42'4 7.3
2019-Aug-18 10:00N 53°33' E 009°48'4 8.0
2019-Aug-18 09:30N 53°33' E 009°55'3 4.9
2019-Aug-18 08:59N 53°33' E 009°59'0 0.0
2019-Aug-18 08:29N 53°33' E 009°59'0 0.0
2019-Aug-18 07:59N 53°33' E 009°59'0 0.0
2019-Aug-18 06:59N 53°33' E 009°59'0 0.1
2019-Aug-18 06:28N 53°33' E 009°59'0 0.0
2019-Aug-18 05:58N 53°33' E 009°59'0 0.0
2019-Aug-18 05:28N 53°33' E 009°59'0 0.0
2019-Aug-18 04:58N 53°33' E 009°59'0 0.0
2019-Aug-18 04:28N 53°33' E 009°59'0 0.0
2019-Aug-18 03:58N 53°33' E 009°59'0 0.0
2019-Aug-18 03:28N 53°33' E 009°59'0 0.0
2019-Aug-18 02:58N 53°33' E 009°59'0 0.0
2019-Aug-18 02:28N 53°33' E 009°59'0 0.0
2019-Aug-18 01:58N 53°33' E 009°59'0 0.0
2019-Aug-18 01:28N 53°33' E 009°59'0 0.0
2019-Aug-18 00:58N 53°33' E 009°59'0 0.0
2019-Aug-18 00:28N 53°33' E 009°59'0 0.0
2019-Aug-17 23:58N 53°33' E 009°59'0 0.0
2019-Aug-17 23:28N 53°33' E 009°59'0 0.0
2019-Aug-17 22:58N 53°33' E 009°59'0 0.0
2019-Aug-17 22:28N 53°33' E 009°59'0 0.0
2019-Aug-17 21:58N 53°33' E 009°59'0 0.0
2019-Aug-17 21:28N 53°33' E 009°59'0 0.0
2019-Aug-17 20:58N 53°33' E 009°59'0 0.0
2019-Aug-17 20:28N 53°33' E 009°59'0 0.0
2019-Aug-17 19:58N 53°33' E 009°59'0 0.2
2019-Aug-17 19:29N 53°33' E 009°59'0 0.0
2019-Aug-17 18:59N 53°33' E 009°59'0 0.0
2019-Aug-17 18:30N 53°33' E 009°59'4 4.1
2019-Aug-17 17:30N 53°33' E 009°52'2 3.1
2019-Aug-17 17:01N 53°33' E 009°49'3 5.3
2019-Aug-17 16:30N 53°34' E 009°45'2 4.2
2019-Aug-17 16:00N 53°33' E 009°49'2 4.6
2019-Aug-17 15:30N 53°33' E 009°52'2 4.9
2019-Aug-17 15:01N 53°33' E 009°56'1 2.9
2019-Aug-17 14:30N 53°33' E 009°59'0 0.0
2019-Aug-17 14:00N 53°33' E 009°59'0 0.0
2019-Aug-17 13:30N 53°33' E 009°59'0 0.0
2019-Aug-17 13:01N 53°33' E 009°59'3 5.1
2019-Aug-17 12:30N 53°32' E 009°55'3 5.5
2019-Aug-17 12:00N 53°33' E 009°50'2 5.0
2019-Aug-17 11:31N 53°34' E 009°46'2 3.8
2019-Aug-17 11:01N 53°34' E 009°43'1 2.3
2019-Aug-17 10:30N 53°34' E 009°45'3 5.8
2019-Aug-17 10:01N 53°33' E 009°49'3 6.2
2019-Aug-17 09:30N 53°33' E 009°55'3 4.7
2019-Aug-17 08:58N 53°33' E 009°59'0 0.0
2019-Aug-17 08:28N 53°33' E 009°59'0 0.0
2019-Aug-17 07:58N 53°33' E 009°59'0 0.0
2019-Aug-17 07:28N 53°33' E 009°59'0 0.0
2019-Aug-17 06:58N 53°33' E 009°59'0 0.0
2019-Aug-17 06:28N 53°33' E 009°59'0 0.0
2019-Aug-17 05:58N 53°33' E 009°59'0 0.0
2019-Aug-17 05:28N 53°33' E 009°59'0 0.0
2019-Aug-17 04:58N 53°33' E 009°59'0 0.0
2019-Aug-17 04:28N 53°33' E 009°59'0 0.0
2019-Aug-17 03:58N 53°33' E 009°59'0 0.0
2019-Aug-17 03:28N 53°33' E 009°59'0 0.0
2019-Aug-17 02:58N 53°33' E 009°59'0 0.0
2019-Aug-17 02:28N 53°33' E 009°59'0 0.0
2019-Aug-17 01:58N 53°33' E 009°59'0 0.0
2019-Aug-17 01:28N 53°33' E 009°59'0 0.0
2019-Aug-17 00:58N 53°33' E 009°59'0 0.0
2019-Aug-17 00:28N 53°33' E 009°59'0 0.0
2019-Aug-16 23:58N 53°33' E 009°59'0 0.0
2019-Aug-16 23:28N 53°33' E 009°59'0 0.0
2019-Aug-16 22:58N 53°33' E 009°59'0 0.0
2019-Aug-16 22:28N 53°33' E 009°59'0 0.0
2019-Aug-16 21:58N 53°33' E 009°59'0 0.0
2019-Aug-16 21:28N 53°33' E 009°59'0 0.0
2019-Aug-16 20:58N 53°33' E 009°59'0 0.0
2019-Aug-16 20:28N 53°33' E 009°59'0 0.0
2019-Aug-16 19:58N 53°33' E 009°59'1 3.0
2019-Aug-16 19:31N 53°32' E 009°57'3 5.5
2019-Aug-16 19:01N 53°33' E 009°52'3 5.0
2019-Aug-16 18:30N 53°33' E 009°48'2 5.0
2019-Aug-16 18:00N 53°34' E 009°44'3 5.7
2019-Aug-16 17:30N 53°34' E 009°39'3 5.6
2019-Aug-16 17:00N 53°36' E 009°35'3 5.3
2019-Aug-16 16:31N 53°38' E 009°32'0 0.5
2019-Aug-16 16:01N 53°38' E 009°32'2 4.1
2019-Aug-16 15:30N 53°37' E 009°34'3 6.5
2019-Aug-16 15:00N 53°35' E 009°39'3 6.6
2019-Aug-16 14:30N 53°34' E 009°44'3 5.9
2019-Aug-16 14:01N 53°33' E 009°49'3 6.1
2019-Aug-16 13:31N 53°33' E 009°54'3 6.1
2019-Aug-16 13:00N 53°33' E 009°59'1 1.6
2019-Aug-16 12:30N 53°33' E 009°58'3 6.9
2019-Aug-16 12:00N 53°33' E 009°52'4 7.1
2019-Aug-16 11:30N 53°34' E 009°46'3 6.2
2019-Aug-16 11:01N 53°34' E 009°41'3 5.6
2019-Aug-16 10:30N 53°35' E 009°37'2 4.7
2019-Aug-16 10:00N 53°34' E 009°40'3 6.9
2019-Aug-16 09:31N 53°34' E 009°46'3 6.5
2019-Aug-16 09:01N 53°33' E 009°51'3 5.8
2019-Aug-16 08:31N 53°33' E 009°56'2 3.2
2019-Aug-16 07:58N 53°33' E 009°59'0 0.0
2019-Aug-16 07:28N 53°33' E 009°59'0 0.0
2019-Aug-16 06:58N 53°33' E 009°59'0 0.0
2019-Aug-16 06:29N 53°33' E 009°59'0 0.0
2019-Aug-16 05:58N 53°33' E 009°59'0 0.0
2019-Aug-16 05:28N 53°33' E 009°59'0 0.0
2019-Aug-16 04:59N 53°33' E 009°59'0 0.0
2019-Aug-16 04:28N 53°33' E 009°59'0 0.0
2019-Aug-16 03:58N 53°33' E 009°59'0 0.0
2019-Aug-16 03:28N 53°33' E 009°59'0 0.0
2019-Aug-16 02:59N 53°33' E 009°59'0 0.0
2019-Aug-16 02:29N 53°33' E 009°59'0 0.0
2019-Aug-16 01:58N 53°33' E 009°59'0 0.0
2019-Aug-16 01:29N 53°33' E 009°59'0 0.0
2019-Aug-16 00:59N 53°33' E 009°59'0 0.0
2019-Aug-16 00:28N 53°33' E 009°59'0 0.0
2019-Aug-15 23:58N 53°33' E 009°59'0 0.0
2019-Aug-15 23:28N 53°33' E 009°59'0 0.0
2019-Aug-15 22:58N 53°33' E 009°59'0 0.0
2019-Aug-15 22:29N 53°33' E 009°59'0 0.0
2019-Aug-15 21:58N 53°33' E 009°59'0 0.0
2019-Aug-15 21:28N 53°33' E 009°59'0 0.0
2019-Aug-15 20:58N 53°33' E 009°59'1 1.5
2019-Aug-15 20:30N 53°33' E 009°58'2 5.0
2019-Aug-15 20:00N 53°32' E 009°54'2 4.7
2019-Aug-15 19:30N 53°33' E 009°50'2 4.4
2019-Aug-15 19:00N 53°34' E 009°46'2 4.3
2019-Aug-15 18:30N 53°34' E 009°43'2 4.9
2019-Aug-15 18:00N 53°34' E 009°47'4 8.0
2019-Aug-15 17:30N 53°33' E 009°53'3 6.7
2019-Aug-15 17:00N 53°33' E 009°59'0 0.0
2019-Aug-15 16:30N 53°33' E 009°59'0 0.0
2019-Aug-15 16:00N 53°33' E 009°59'0 0.0
2019-Aug-15 15:30N 53°33' E 009°59'0 0.0
2019-Aug-15 15:00N 53°33' E 009°59'0 0.0
2019-Aug-15 14:30N 53°33' E 009°59'1 1.4
2019-Aug-15 14:00N 53°32' E 009°60'2 3.8
2019-Aug-15 13:30N 53°33' E 009°57'4 7.7
2019-Aug-15 13:00N 53°33' E 009°50'4 7.9
2019-Aug-15 12:30N 53°34' E 009°44'0 0.2
2019-Aug-15 12:00N 53°34' E 009°44'2 3.0
2019-Aug-15 11:30N 53°34' E 009°46'1 2.7
2019-Aug-15 11:00N 53°33' E 009°49'2 4.2
2019-Aug-15 10:30N 53°33' E 009°52'3 6.3
2019-Aug-15 10:00N 53°33' E 009°57'1 2.0
2019-Aug-15 09:30N 53°33' E 009°59'0 0.0
2019-Aug-15 09:00N 53°33' E 009°59'0 0.0
2019-Aug-15 08:30N 53°33' E 009°59'0 0.0
2019-Aug-15 08:00N 53°33' E 009°59'0 0.0
2019-Aug-15 07:30N 53°33' E 009°59'0 0.2
2019-Aug-15 07:00N 53°33' E 009°59'0 0.0
2019-Aug-15 06:30N 53°33' E 009°59'0 0.0
2019-Aug-15 06:00N 53°33' E 009°59'0 0.0
2019-Aug-15 05:30N 53°33' E 009°59'0 0.0
2019-Aug-15 05:00N 53°33' E 009°59'0 0.0
2019-Aug-15 04:30N 53°33' E 009°59'0 0.0
2019-Aug-15 04:00N 53°33' E 009°59'0 0.0
2019-Aug-15 03:30N 53°33' E 009°59'0 0.0
2019-Aug-15 03:00N 53°33' E 009°59'0 0.0
2019-Aug-15 02:30N 53°33' E 009°59'0 0.0
2019-Aug-15 02:00N 53°33' E 009°59'0 0.0
2019-Aug-15 01:30N 53°33' E 009°59'0 0.0
2019-Aug-15 01:00N 53°33' E 009°59'0 0.0
2019-Aug-15 00:30N 53°33' E 009°59'0 0.0
2019-Aug-15 00:00N 53°33' E 009°59'0 0.0
2019-Aug-14 23:30N 53°33' E 009°59'0 0.0
2019-Aug-14 23:00N 53°33' E 009°59'0 0.0
2019-Aug-14 22:30N 53°33' E 009°59'0 0.0
2019-Aug-14 22:00N 53°33' E 009°59'0 0.0
2019-Aug-14 21:30N 53°33' E 009°59'0 0.0
2019-Aug-14 21:00N 53°33' E 009°59'0 0.0
2019-Aug-14 20:30N 53°33' E 009°59'0 0.0
2019-Aug-14 20:00N 53°33' E 009°59'0 0.0
2019-Aug-14 19:30N 53°33' E 009°59'  

Dump ship's entire track history